createdAt,value
2019-01-25T00:00:44.037Z,19.07
2019-01-25T00:03:16.083Z,18.73
2019-01-25T00:05:48.462Z,17.13
2019-01-25T00:08:20.970Z,19.73
2019-01-25T00:10:53.365Z,19.37
2019-01-25T00:13:25.240Z,20.27
2019-01-25T00:15:57.284Z,20.10
2019-01-25T00:18:30.441Z,21.47
2019-01-25T00:21:02.836Z,21.37
2019-01-25T00:23:34.983Z,21.03
2019-01-25T00:26:12.346Z,22.40
2019-01-25T00:28:45.773Z,21.77
2019-01-25T00:31:18.120Z,21.83
2019-01-25T00:33:50.719Z,23.27
2019-01-25T00:36:22.860Z,22.93
2019-01-25T00:38:55.299Z,23.10
2019-01-25T00:41:27.453Z,24.03
2019-01-25T00:43:59.833Z,23.87
2019-01-25T00:46:32.159Z,23.50
2019-01-25T00:49:04.990Z,25.90
2019-01-25T00:51:37.231Z,28.90
2019-01-25T00:54:09.467Z,24.73
2019-01-25T00:56:42.970Z,24.60
2019-01-25T00:59:15.289Z,25.80
2019-01-25T01:01:47.893Z,25.20
2019-01-25T01:04:22.496Z,25.90
2019-01-25T01:06:56.382Z,27.80
2019-01-25T01:09:28.790Z,27.43
2019-01-25T01:12:02.204Z,28.80
2019-01-25T01:14:34.292Z,28.60
2019-01-25T01:17:06.498Z,27.90
2019-01-25T01:19:38.666Z,28.50
2019-01-25T01:22:10.935Z,27.27
2019-01-25T01:24:42.999Z,29.17
2019-01-25T01:27:16.951Z,27.87
2019-01-25T01:29:51.179Z,28.63
2019-01-25T01:32:23.185Z,27.80
2019-01-25T01:34:55.872Z,28.23
2019-01-25T01:37:29.683Z,29.87
2019-01-25T01:40:02.385Z,26.83
2019-01-25T01:42:34.482Z,28.10
2019-01-25T01:45:08.913Z,27.97
2019-01-25T01:47:41.092Z,27.93
2019-01-25T01:50:15.749Z,26.70
2019-01-25T01:52:48.852Z,29.20
2019-01-25T01:55:22.079Z,28.87
2019-01-25T01:57:56.533Z,25.17
2019-01-25T02:00:29.156Z,30.70
2019-01-25T02:03:04.026Z,29.63
2019-01-25T02:05:40.840Z,28.27
2019-01-25T02:08:14.763Z,28.47
2019-01-25T02:10:47.902Z,29.33
2019-01-25T02:13:20.111Z,28.63
2019-01-25T02:15:53.062Z,27.10
2019-01-25T02:18:25.983Z,28.77
2019-01-25T02:20:58.638Z,29.87
2019-01-25T02:23:32.518Z,28.83
2019-01-25T02:26:04.958Z,27.97
2019-01-25T02:28:37.994Z,26.67
2019-01-25T02:31:10.100Z,26.93
2019-01-25T02:33:42.101Z,27.80
2019-01-25T02:36:14.268Z,27.67
2019-01-25T02:38:46.882Z,28.87
2019-01-25T02:41:18.973Z,28.23
2019-01-25T02:43:54.620Z,28.23
2019-01-25T02:46:28.881Z,25.43
2019-01-25T02:49:01.431Z,27.17
2019-01-25T02:51:34.111Z,26.47
2019-01-25T02:54:06.863Z,27.40
2019-01-25T02:56:41.144Z,27.33
2019-01-25T02:59:13.691Z,27.47
2019-01-25T03:01:45.962Z,26.50
2019-01-25T03:04:18.119Z,27.53
2019-01-25T03:06:50.694Z,27.33
2019-01-25T03:09:23.163Z,27.37
2019-01-25T03:11:55.516Z,29.03
2019-01-25T03:14:28.137Z,27.67
2019-01-25T03:17:00.750Z,26.20
2019-01-25T03:19:33.570Z,27.67
2019-01-25T03:22:07.938Z,27.93
2019-01-25T03:24:41.270Z,26.37
2019-01-25T03:27:13.372Z,27.73
2019-01-25T03:29:47.570Z,26.20
2019-01-25T03:32:19.978Z,25.57
2019-01-25T03:34:51.969Z,27.07
2019-01-25T03:37:24.059Z,26.67
2019-01-25T03:39:56.887Z,28.70
2019-01-25T03:42:29.725Z,27.53
2019-01-25T03:45:02.103Z,26.00
2019-01-25T03:47:34.302Z,27.00
2019-01-25T03:50:09.274Z,28.67
2019-01-25T03:52:42.432Z,27.23
2019-01-25T03:55:20.609Z,28.13
2019-01-25T03:57:53.754Z,28.27
2019-01-25T04:00:28.239Z,28.57
2019-01-25T04:03:00.570Z,29.67
2019-01-25T04:05:33.649Z,30.00
2019-01-25T04:08:05.986Z,28.63
2019-01-25T04:10:38.194Z,27.67
2019-01-25T04:13:10.438Z,30.23
2019-01-25T04:15:42.891Z,29.07
2019-01-25T04:18:14.943Z,27.57
2019-01-25T04:20:47.068Z,30.40
2019-01-25T04:23:19.929Z,29.50
2019-01-25T04:25:52.402Z,28.37
2019-01-25T04:28:24.786Z,31.07
2019-01-25T04:30:57.483Z,29.43
2019-01-25T04:33:29.595Z,30.63
2019-01-25T04:36:02.468Z,29.33
2019-01-25T04:38:35.778Z,27.27
2019-01-25T04:41:11.785Z,31.00
2019-01-25T04:43:42.770Z,32.33
2019-01-25T04:46:15.737Z,30.53
2019-01-25T04:48:48.506Z,33.77
2019-01-25T04:51:20.771Z,30.77
2019-01-25T04:53:54.286Z,31.30
2019-01-25T04:56:26.671Z,31.63
2019-01-25T04:58:59.290Z,32.00
2019-01-25T05:01:31.454Z,31.93
2019-01-25T05:04:04.086Z,32.63
2019-01-25T05:06:36.651Z,32.40
2019-01-25T05:09:10.044Z,32.40
2019-01-25T05:11:42.780Z,33.13
2019-01-25T05:14:15.130Z,31.97
2019-01-25T05:16:47.941Z,32.40
2019-01-25T05:19:20.627Z,31.43
2019-01-25T05:21:53.356Z,32.07
2019-01-25T05:24:26.262Z,31.97
2019-01-25T05:26:59.842Z,31.33
2019-01-25T05:29:46.485Z,34.27
2019-01-25T05:32:19.269Z,33.47
2019-01-25T05:34:52.064Z,33.10
2019-01-25T05:37:24.384Z,32.53
2019-01-25T05:39:56.793Z,32.03
2019-01-25T05:42:29.574Z,32.90
2019-01-25T05:45:05.934Z,32.80
2019-01-25T05:47:38.205Z,34.00
2019-01-25T05:50:12.922Z,34.50
2019-01-25T05:52:45.420Z,33.83
2019-01-25T05:55:22.745Z,36.67
2019-01-25T05:58:04.506Z,35.97
2019-01-25T06:00:38.145Z,34.50
2019-01-25T06:03:13.393Z,33.70
2019-01-25T06:05:46.692Z,34.13
2019-01-25T06:08:30.130Z,42.33
2019-01-25T06:11:04.570Z,42.90
2019-01-25T06:13:38.183Z,36.50
2019-01-25T06:16:10.705Z,37.80
2019-01-25T06:18:43.090Z,36.10
2019-01-25T06:21:15.687Z,35.73
2019-01-25T06:23:48.070Z,36.40
2019-01-25T06:26:21.021Z,38.23
2019-01-25T06:28:53.599Z,40.63
2019-01-25T06:31:26.374Z,39.67
2019-01-25T06:33:59.176Z,39.30
2019-01-25T06:36:33.199Z,38.77
2019-01-25T06:39:07.356Z,38.83
2019-01-25T06:41:44.034Z,39.87
2019-01-25T06:44:13.294Z,40.03
2019-01-25T06:46:45.738Z,38.03
2019-01-25T06:49:17.933Z,39.93
2019-01-25T06:51:50.261Z,37.03
2019-01-25T06:54:22.656Z,39.33
2019-01-25T06:56:55.017Z,35.67
2019-01-25T06:59:27.374Z,39.73
2019-01-25T07:02:00.888Z,38.23
2019-01-25T07:04:33.085Z,37.77
2019-01-25T07:07:07.173Z,37.33
2019-01-25T07:09:40.301Z,38.20
2019-01-25T07:12:12.589Z,37.73
2019-01-25T07:14:44.672Z,41.27
2019-01-25T07:17:17.357Z,35.87
2019-01-25T07:19:49.508Z,37.80
2019-01-25T07:22:22.088Z,39.53
2019-01-25T07:24:57.300Z,36.57
2019-01-25T07:27:28.129Z,38.37
2019-01-25T07:30:00.949Z,38.10
2019-01-25T07:32:33.390Z,39.07
2019-01-25T07:35:07.020Z,37.00
2019-01-25T07:37:39.555Z,36.10
2019-01-25T07:40:14.979Z,35.97
2019-01-25T07:42:46.843Z,40.30
2019-01-25T07:45:19.044Z,38.10
2019-01-25T07:47:50.979Z,37.20
2019-01-25T07:50:23.352Z,39.87
2019-01-25T07:52:55.381Z,37.47
2019-01-25T07:55:27.306Z,39.30
2019-01-25T07:57:59.348Z,39.23
2019-01-25T08:00:31.823Z,38.30
2019-01-25T08:03:04.217Z,41.00
2019-01-25T08:05:36.470Z,38.97
2019-01-25T08:08:08.354Z,37.57
2019-01-25T08:10:40.636Z,39.50
2019-01-25T08:13:13.315Z,40.70
2019-01-25T08:15:45.650Z,41.27
2019-01-25T08:18:18.338Z,40.30
2019-01-25T08:20:50.529Z,41.37
2019-01-25T08:23:22.742Z,41.67
2019-01-25T08:25:55.037Z,41.07
2019-01-25T08:28:27.102Z,41.10
2019-01-25T08:30:59.552Z,43.23
2019-01-25T08:33:33.037Z,40.03
2019-01-25T08:36:05.687Z,40.67
2019-01-25T08:38:38.004Z,40.43
2019-01-25T08:41:10.741Z,40.23
2019-01-25T08:43:43.050Z,41.70
2019-01-25T08:46:15.777Z,40.37
2019-01-25T08:48:47.850Z,38.30
2019-01-25T08:51:20.186Z,40.00
2019-01-25T08:53:52.616Z,38.63
2019-01-25T08:56:25.205Z,40.50
2019-01-25T08:58:58.793Z,39.97
2019-01-25T09:01:31.180Z,39.13
2019-01-25T09:04:03.322Z,42.00
2019-01-25T09:06:35.408Z,37.50
2019-01-25T09:09:09.187Z,40.43
2019-01-25T09:11:41.449Z,39.97
2019-01-25T09:14:13.806Z,42.07
2019-01-25T09:16:45.905Z,41.17
2019-01-25T09:19:18.038Z,42.37
2019-01-25T09:21:50.489Z,38.87
2019-01-25T09:24:22.368Z,41.07
2019-01-25T09:26:54.629Z,39.57
2019-01-25T09:29:26.711Z,40.90
2019-01-25T09:31:59.075Z,41.43
2019-01-25T09:34:31.513Z,39.40
2019-01-25T09:37:04.457Z,39.77
2019-01-25T09:39:36.601Z,40.37
2019-01-25T09:42:09.054Z,39.47
2019-01-25T09:44:41.405Z,40.47
2019-01-25T09:47:14.174Z,39.87
2019-01-25T09:49:46.360Z,40.70
2019-01-25T09:52:18.472Z,39.87
2019-01-25T09:54:50.551Z,40.53
2019-01-25T09:57:22.977Z,38.87
2019-01-25T09:59:55.541Z,32.33
2019-01-25T10:02:27.693Z,38.67
2019-01-25T10:04:59.841Z,35.67
2019-01-25T10:07:32.484Z,37.10
2019-01-25T10:10:05.342Z,39.87
2019-01-25T10:12:43.294Z,38.90
2019-01-25T10:15:17.197Z,41.20
2019-01-25T10:17:49.370Z,41.43
2019-01-25T10:20:21.775Z,40.50
2019-01-25T10:22:54.150Z,42.17
2019-01-25T10:25:26.601Z,37.23
2019-01-25T10:27:59.095Z,38.77
2019-01-25T10:30:32.421Z,38.63
2019-01-25T10:33:05.071Z,36.13
2019-01-25T10:35:37.385Z,36.37
2019-01-25T10:38:09.599Z,34.27
2019-01-25T10:40:42.019Z,33.97
2019-01-25T10:43:14.782Z,34.57
2019-01-25T10:45:47.229Z,35.07
2019-01-25T10:48:19.846Z,36.03
2019-01-25T10:50:52.561Z,32.97
2019-01-25T10:53:24.949Z,33.47
2019-01-25T10:55:57.225Z,35.07
2019-01-25T10:58:29.563Z,33.20
2019-01-25T11:01:01.962Z,33.07
2019-01-25T11:03:34.021Z,33.27
2019-01-25T11:06:06.190Z,33.93
2019-01-25T11:08:38.398Z,32.10
2019-01-25T11:11:10.714Z,31.17
2019-01-25T11:13:43.377Z,32.97
2019-01-25T11:16:15.528Z,29.80
2019-01-25T11:18:48.110Z,32.57
2019-01-25T11:21:20.482Z,31.57
2019-01-25T11:23:52.802Z,34.57
2019-01-25T11:26:25.161Z,34.73
2019-01-25T11:28:57.710Z,34.13
2019-01-25T11:31:29.666Z,36.53
2019-01-25T11:34:01.739Z,32.07
2019-01-25T11:36:33.605Z,31.33
2019-01-25T11:39:06.897Z,31.93
2019-01-25T11:41:38.752Z,35.73
2019-01-25T11:44:10.621Z,36.27
2019-01-25T11:46:42.654Z,38.73
2019-01-25T11:49:14.730Z,40.47
2019-01-25T11:51:46.666Z,37.00
2019-01-25T11:54:19.221Z,36.67
2019-01-25T11:56:51.863Z,36.30
2019-01-25T11:59:23.770Z,33.93
2019-01-25T12:01:55.778Z,36.87
2019-01-25T12:04:27.855Z,32.63
2019-01-25T12:06:59.859Z,32.67
2019-01-25T12:09:31.841Z,33.40
2019-01-25T12:12:04.112Z,30.87
2019-01-25T12:14:36.196Z,30.93
2019-01-25T12:17:08.233Z,32.07
2019-01-25T12:19:40.362Z,29.97
2019-01-25T12:22:12.268Z,30.27
2019-01-25T12:24:44.587Z,31.90
2019-01-25T12:27:16.709Z,30.77
2019-01-25T12:29:49.093Z,33.57
2019-01-25T12:32:21.061Z,33.33
2019-01-25T12:34:56.500Z,32.10
2019-01-25T12:37:28.366Z,31.87
2019-01-25T12:40:00.512Z,32.40
2019-01-25T12:42:32.409Z,30.10
2019-01-25T12:45:04.682Z,26.93
2019-01-25T12:47:36.874Z,30.97
2019-01-25T12:50:33.103Z,31.47
2019-01-25T12:53:07.850Z,31.93
2019-01-25T12:55:39.858Z,30.40
2019-01-25T12:58:12.351Z,29.50
2019-01-25T13:00:44.414Z,28.60
2019-01-25T13:03:16.576Z,29.67
2019-01-25T13:05:48.964Z,28.30
2019-01-25T13:08:23.246Z,27.30
2019-01-25T13:10:55.540Z,28.30
2019-01-25T13:13:31.764Z,28.70
2019-01-25T13:16:02.422Z,28.93
2019-01-25T13:18:34.518Z,28.93
2019-01-25T13:21:07.123Z,26.47
2019-01-25T13:23:39.007Z,26.53
2019-01-25T13:26:11.438Z,25.63
2019-01-25T13:28:43.678Z,28.03
2019-01-25T13:31:16.016Z,29.63
2019-01-25T13:33:52.709Z,30.03
2019-01-25T13:36:24.554Z,28.33
2019-01-25T13:38:56.733Z,25.27
2019-01-25T13:41:28.982Z,28.23
2019-01-25T13:44:01.461Z,26.37
2019-01-25T13:46:33.448Z,22.33
2019-01-25T13:49:30.513Z,23.80
2019-01-25T13:52:02.356Z,23.83
2019-01-25T13:54:34.413Z,21.87
2019-01-25T13:57:06.633Z,21.93
2019-01-25T13:59:39.178Z,23.23
2019-01-25T14:02:11.541Z,22.73
2019-01-25T14:04:43.540Z,21.10
2019-01-25T14:07:15.496Z,22.03
2019-01-25T14:09:47.480Z,22.17
2019-01-25T14:12:19.947Z,21.60
2019-01-25T14:14:52.254Z,22.07
2019-01-25T14:17:24.146Z,22.93
2019-01-25T14:19:56.279Z,21.73
2019-01-25T14:22:29.243Z,23.80
2019-01-25T14:25:02.313Z,21.53
2019-01-25T14:27:34.358Z,21.27
2019-01-25T14:30:11.592Z,19.57
2019-01-25T14:32:44.130Z,18.40
2019-01-25T14:35:16.327Z,19.63
2019-01-25T14:37:49.670Z,17.30
2019-01-25T14:40:22.178Z,18.50
2019-01-25T14:42:54.177Z,17.67
2019-01-25T14:45:26.438Z,16.27
2019-01-25T14:47:58.523Z,17.60
2019-01-25T14:50:33.950Z,15.50
2019-01-25T14:53:06.519Z,15.00
2019-01-25T14:55:39.156Z,17.30
2019-01-25T14:58:11.269Z,17.40
2019-01-25T15:00:43.152Z,18.13
2019-01-25T15:03:15.026Z,19.90
2019-01-25T15:05:46.936Z,21.87
2019-01-25T15:08:18.739Z,22.00
2019-01-25T15:10:51.092Z,21.13
2019-01-25T15:13:23.615Z,20.13
2019-01-25T15:15:55.618Z,19.40
2019-01-25T15:22:08.012Z,17.67
2019-01-25T15:24:40.094Z,18.27
2019-01-25T15:27:12.369Z,19.87
2019-01-25T15:29:44.285Z,16.27
2019-01-25T15:32:17.097Z,17.50
2019-01-25T15:34:49.685Z,17.53
2019-01-25T15:37:22.378Z,16.60
2019-01-25T15:39:54.588Z,17.47
2019-01-25T15:42:26.330Z,17.83
2019-01-25T15:44:58.269Z,18.07
2019-01-25T15:47:31.684Z,17.70
2019-01-25T15:50:03.819Z,14.43
2019-01-25T15:52:38.609Z,14.53
2019-01-25T15:55:12.645Z,14.83
2019-01-25T15:57:45.091Z,14.73
2019-01-25T16:00:20.077Z,15.23
2019-01-25T16:02:52.985Z,16.33
2019-01-25T16:05:31.516Z,14.33
2019-01-25T16:08:05.709Z,16.03
2019-01-25T16:10:39.084Z,15.60
2019-01-25T16:13:11.846Z,15.97
2019-01-25T16:15:44.418Z,14.27
2019-01-25T16:18:16.302Z,16.40
2019-01-25T16:23:35.825Z,13.80
2019-01-25T16:26:07.938Z,15.60
2019-01-25T16:28:39.862Z,15.73
2019-01-25T16:31:12.225Z,12.77
2019-01-25T16:33:44.389Z,13.87
2019-01-25T16:36:16.773Z,13.40
2019-01-25T16:38:48.677Z,12.57
2019-01-25T16:41:20.801Z,15.60
2019-01-25T16:43:53.197Z,13.97
2019-01-25T16:46:27.431Z,13.47
2019-01-25T16:48:59.483Z,12.90
2019-01-25T16:51:31.872Z,13.63
2019-01-25T16:54:03.969Z,11.80
2019-01-25T16:56:36.188Z,10.77
2019-01-25T16:59:08.425Z,12.03
2019-01-25T17:01:41.694Z,11.43
2019-01-25T17:04:16.478Z,12.67
2019-01-25T17:06:48.157Z,11.40
2019-01-25T17:09:20.312Z,12.93
2019-01-25T17:11:52.134Z,10.80
2019-01-25T17:14:24.330Z,12.17
2019-01-25T17:16:56.653Z,11.40
2019-01-25T17:19:28.659Z,12.53
2019-01-25T17:22:01.258Z,12.50
2019-01-25T17:24:33.206Z,12.27
2019-01-25T17:27:05.113Z,11.60
2019-01-25T17:29:37.375Z,11.25
2019-01-25T17:32:09.522Z,13.65
2019-01-25T17:34:42.073Z,13.45
2019-01-25T17:37:15.322Z,14.63
2019-01-25T17:39:48.739Z,14.27
2019-01-25T17:42:20.781Z,14.80
2019-01-25T17:44:53.754Z,13.50
2019-01-25T17:47:28.126Z,14.70
2019-01-25T17:50:00.479Z,14.47
2019-01-25T17:52:32.347Z,13.23
2019-01-25T17:55:06.679Z,13.20
2019-01-25T17:57:40.330Z,16.37
2019-01-25T18:00:21.205Z,16.35
2019-01-25T18:02:53.449Z,14.77
2019-01-25T18:05:28.002Z,16.63
2019-01-25T18:08:01.089Z,14.87
2019-01-25T18:10:33.779Z,13.38
2019-01-25T18:13:07.634Z,15.10
2019-01-25T18:15:40.495Z,16.10
2019-01-25T18:18:13.299Z,17.95
2019-01-25T18:20:45.939Z,18.23
2019-01-25T18:23:18.009Z,15.23
2019-01-25T18:25:52.383Z,15.03
2019-01-25T18:28:28.528Z,15.32
2019-01-25T18:31:11.634Z,15.03
2019-01-25T18:33:52.247Z,16.70
2019-01-25T18:36:24.661Z,14.70
2019-01-25T18:38:58.568Z,13.83
2019-01-25T18:41:31.657Z,14.57
2019-01-25T18:44:07.724Z,15.15
2019-01-25T18:46:40.681Z,16.37
2019-01-25T18:49:12.609Z,15.17
2019-01-25T18:51:44.474Z,14.73
2019-01-25T18:57:44.472Z,14.33
2019-01-25T19:00:21.014Z,15.40
2019-01-25T19:02:53.665Z,13.72
2019-01-25T19:05:25.769Z,12.78
2019-01-25T19:07:59.024Z,14.65
2019-01-25T19:10:46.624Z,17.35
2019-01-25T19:13:24.182Z,20.52
2019-01-25T19:15:56.038Z,19.48
2019-01-25T19:18:29.010Z,13.50
2019-01-25T19:21:00.968Z,15.45
2019-01-25T19:23:32.915Z,17.95
2019-01-25T19:26:05.085Z,18.23
2019-01-25T19:28:37.551Z,12.90
2019-01-25T19:31:10.049Z,15.55
2019-01-25T19:33:46.943Z,13.85
2019-01-25T19:36:21.316Z,12.98
2019-01-25T19:38:55.261Z,12.70
2019-01-25T19:41:27.422Z,12.20
2019-01-25T19:43:59.450Z,13.18
2019-01-25T19:46:31.716Z,12.80
2019-01-25T19:49:04.601Z,15.67
2019-01-25T19:51:36.848Z,13.50
2019-01-25T19:54:08.925Z,14.20
2019-01-25T19:56:40.788Z,13.93
2019-01-25T19:59:13.275Z,14.53
2019-01-25T20:01:45.436Z,13.60
2019-01-25T20:07:53.189Z,16.30
2019-01-25T20:10:25.481Z,14.87
2019-01-25T20:12:59.747Z,13.30
2019-01-25T20:15:31.940Z,13.28
2019-01-25T20:18:15.219Z,14.13
2019-01-25T20:21:07.282Z,12.43
2019-01-25T20:23:50.091Z,12.60
2019-01-25T20:26:37.305Z,13.15
2019-01-25T20:29:31.351Z,12.00
2019-01-25T20:32:08.794Z,11.90
2019-01-25T20:34:40.925Z,11.15
2019-01-25T20:37:13.574Z,12.23
2019-01-25T20:39:45.397Z,12.85
2019-01-25T20:42:17.164Z,13.30
2019-01-25T20:44:49.665Z,13.57
2019-01-25T20:47:21.561Z,11.47
2019-01-25T20:49:53.365Z,11.63
2019-01-25T20:52:25.842Z,12.70
2019-01-25T20:54:57.536Z,12.35
2019-01-25T20:57:29.432Z,12.05
2019-01-25T21:00:08.415Z,12.47
2019-01-25T21:02:34.992Z,11.88
2019-01-25T21:05:11.219Z,11.35
2019-01-25T21:07:51.069Z,12.50
2019-01-25T21:10:25.603Z,11.38
2019-01-25T21:12:58.792Z,11.88
2019-01-25T21:15:35.366Z,11.80
2019-01-25T21:18:04.867Z,13.45
2019-01-25T21:20:45.103Z,11.73
2019-01-25T21:23:18.768Z,11.50
2019-01-25T21:25:50.834Z,11.57
2019-01-25T21:28:22.942Z,11.88
2019-01-25T21:30:54.886Z,11.25
2019-01-25T21:33:26.836Z,12.07
2019-01-25T21:35:59.306Z,11.45
2019-01-25T21:38:31.421Z,11.12
2019-01-25T21:41:03.107Z,13.15
2019-01-25T21:43:35.455Z,10.98
2019-01-25T21:46:13.554Z,13.00
2019-01-25T21:48:45.215Z,12.13
2019-01-25T21:51:17.267Z,12.95
2019-01-25T21:53:49.787Z,12.93
2019-01-25T21:56:23.597Z,20.57
2019-01-25T21:58:57.940Z,13.17
2019-01-25T22:01:30.530Z,12.60
2019-01-25T22:04:04.504Z,12.23
2019-01-25T22:06:36.429Z,11.25
2019-01-25T22:09:11.390Z,11.80
2019-01-25T22:11:43.265Z,12.47
2019-01-25T22:14:16.864Z,12.40
2019-01-25T22:16:48.612Z,14.40
2019-01-25T22:19:20.271Z,11.93
2019-01-25T22:21:51.992Z,12.83
2019-01-25T22:24:24.363Z,11.80
2019-01-25T22:26:56.532Z,9.80
2019-01-25T22:29:28.198Z,11.05
2019-01-25T22:31:59.860Z,11.63
2019-01-25T22:34:31.738Z,11.63
2019-01-25T22:37:03.846Z,12.97
2019-01-25T22:39:35.588Z,12.97
2019-01-25T22:42:07.240Z,12.73
2019-01-25T22:44:39.100Z,11.63
2019-01-25T22:47:11.016Z,12.17
2019-01-25T22:49:44.640Z,14.07
2019-01-25T22:52:16.690Z,12.37
2019-01-25T22:54:48.596Z,13.03
2019-01-25T22:57:20.524Z,11.38
2019-01-25T22:59:52.829Z,13.63
2019-01-25T23:02:24.855Z,13.27
2019-01-25T23:05:04.919Z,13.90
2019-01-25T23:07:38.486Z,14.33
2019-01-25T23:10:12.730Z,12.23
2019-01-25T23:12:44.711Z,14.13
2019-01-25T23:15:18.724Z,12.73
2019-01-25T23:17:50.972Z,14.43
2019-01-25T23:20:23.283Z,14.87
2019-01-25T23:22:54.972Z,14.53
2019-01-25T23:25:26.663Z,13.57
2019-01-25T23:27:58.528Z,16.17
2019-01-25T23:30:30.352Z,15.60
2019-01-25T23:33:02.226Z,16.13
2019-01-25T23:35:33.964Z,15.27
2019-01-25T23:38:05.871Z,16.13
2019-01-25T23:40:38.124Z,17.77
2019-01-25T23:43:10.750Z,15.43
2019-01-25T23:45:42.517Z,16.60
2019-01-25T23:48:15.821Z,15.13
2019-01-25T23:50:48.760Z,17.20
2019-01-25T23:53:21.155Z,17.87
2019-01-25T23:55:53.795Z,17.17
2019-01-25T23:58:25.643Z,18.33
